sensor_id;sensor_type;location;lat;lon;timestamp;temperature;humidity
14873;DHT22;7528;48.576;19.122;2022-11-15T00:03:23;7.90;70.10
14873;DHT22;7528;48.576;19.122;2022-11-15T00:08:46;7.80;70.20
14873;DHT22;7528;48.576;19.122;2022-11-15T00:14:08;7.90;71.10
14873;DHT22;7528;48.576;19.122;2022-11-15T00:19:29;7.90;71.00
14873;DHT22;7528;48.576;19.122;2022-11-15T00:24:52;7.90;71.10
14873;DHT22;7528;48.576;19.122;2022-11-15T00:30:13;7.70;72.00
14873;DHT22;7528;48.576;19.122;2022-11-15T00:35:35;7.60;73.00
14873;DHT22;7528;48.576;19.122;2022-11-15T00:40:57;7.70;73.20
14873;DHT22;7528;48.576;19.122;2022-11-15T00:46:20;7.80;72.80
14873;DHT22;7528;48.576;19.122;2022-11-15T00:51:42;7.70;73.30
14873;DHT22;7528;48.576;19.122;2022-11-15T00:57:05;7.60;74.00
14873;DHT22;7528;48.576;19.122;2022-11-15T01:02:26;7.50;73.80
14873;DHT22;7528;48.576;19.122;2022-11-15T01:07:51;7.40;74.00
14873;DHT22;7528;48.576;19.122;2022-11-15T01:13:14;7.30;74.30
14873;DHT22;7528;48.576;19.122;2022-11-15T01:18:35;7.40;74.60
14873;DHT22;7528;48.576;19.122;2022-11-15T01:23:57;7.30;74.70
14873;DHT22;7528;48.576;19.122;2022-11-15T01:29:20;7.30;75.00
14873;DHT22;7528;48.576;19.122;2022-11-15T01:34:41;7.40;75.00
14873;DHT22;7528;48.576;19.122;2022-11-15T01:40:03;7.30;75.00
14873;DHT22;7528;48.576;19.122;2022-11-15T01:45:26;7.50;75.00
14873;DHT22;7528;48.576;19.122;2022-11-15T01:50:48;7.50;74.90
14873;DHT22;7528;48.576;19.122;2022-11-15T01:56:13;7.40;74.80
14873;DHT22;7528;48.576;19.122;2022-11-15T02:01:36;7.40;74.90
14873;DHT22;7528;48.576;19.122;2022-11-15T02:06:58;7.40;74.50
14873;DHT22;7528;48.576;19.122;2022-11-15T02:12:21;7.40;74.30
14873;DHT22;7528;48.576;19.122;2022-11-15T02:18:07;7.50;73.90
14873;DHT22;7528;48.576;19.122;2022-11-15T02:29:43;7.40;74.50
14873;DHT22;7528;48.576;19.122;2022-11-15T02:35:26;7.30;74.70
14873;DHT22;7528;48.576;19.122;2022-11-15T02:40:54;7.40;74.20
14873;DHT22;7528;48.576;19.122;2022-11-15T02:46:21;7.40;73.60
14873;DHT22;7528;48.576;19.122;2022-11-15T02:52:06;7.40;73.30
14873;DHT22;7528;48.576;19.122;2022-11-15T02:57:37;7.40;72.70
14873;DHT22;7528;48.576;19.122;2022-11-15T03:03:20;7.40;71.60
14873;DHT22;7528;48.576;19.122;2022-11-15T03:08:55;7.40;72.00
14873;DHT22;7528;48.576;19.122;2022-11-15T03:14:22;7.30;72.50
14873;DHT22;7528;48.576;19.122;2022-11-15T03:19:46;7.30;73.70
14873;DHT22;7528;48.576;19.122;2022-11-15T03:25:14;7.20;73.70
14873;DHT22;7528;48.576;19.122;2022-11-15T03:30:37;7.20;74.50
14873;DHT22;7528;48.576;19.122;2022-11-15T03:35:59;7.20;74.60
14873;DHT22;7528;48.576;19.122;2022-11-15T03:41:27;7.20;74.20
14873;DHT22;7528;48.576;19.122;2022-11-15T03:46:56;7.00;74.10
14873;DHT22;7528;48.576;19.122;2022-11-15T03:52:19;7.10;74.30
14873;DHT22;7528;48.576;19.122;2022-11-15T03:57:42;7.10;74.30
14873;DHT22;7528;48.576;19.122;2022-11-15T04:03:03;7.00;74.10
14873;DHT22;7528;48.576;19.122;2022-11-15T04:08:26;7.00;74.50
14873;DHT22;7528;48.576;19.122;2022-11-15T04:13:49;6.90;74.60
14873;DHT22;7528;48.576;19.122;2022-11-15T04:19:10;6.90;74.50
14873;DHT22;7528;48.576;19.122;2022-11-15T04:24:49;6.90;74.70
14873;DHT22;7528;48.576;19.122;2022-11-15T04:30:13;6.90;74.60
14873;DHT22;7528;48.576;19.122;2022-11-15T04:35:34;7.00;74.80
14873;DHT22;7528;48.576;19.122;2022-11-15T04:40:55;7.00;74.00
14873;DHT22;7528;48.576;19.122;2022-11-15T04:46:18;7.00;73.40
14873;DHT22;7528;48.576;19.122;2022-11-15T04:51:39;7.10;73.00
14873;DHT22;7528;48.576;19.122;2022-11-15T04:57:00;7.20;72.90
14873;DHT22;7528;48.576;19.122;2022-11-15T05:02:23;7.30;72.50
14873;DHT22;7528;48.576;19.122;2022-11-15T05:08:04;7.10;72.40
14873;DHT22;7528;48.576;19.122;2022-11-15T05:13:26;7.20;72.20
14873;DHT22;7528;48.576;19.122;2022-11-15T05:18:50;7.30;71.70
14873;DHT22;7528;48.576;19.122;2022-11-15T05:24:12;7.20;71.40
14873;DHT22;7528;48.576;19.122;2022-11-15T05:29:33;7.20;72.30
14873;DHT22;7528;48.576;19.122;2022-11-15T05:34:57;7.30;72.20
14873;DHT22;7528;48.576;19.122;2022-11-15T05:40:18;7.20;71.90
14873;DHT22;7528;48.576;19.122;2022-11-15T05:45:40;7.20;72.60
14873;DHT22;7528;48.576;19.122;2022-11-15T05:51:03;7.20;72.30
14873;DHT22;7528;48.576;19.122;2022-11-15T05:56:26;7.20;73.00
14873;DHT22;7528;48.576;19.122;2022-11-15T06:01:47;7.20;72.70
14873;DHT22;7528;48.576;19.122;2022-11-15T06:07:09;7.30;72.80
14873;DHT22;7528;48.576;19.122;2022-11-15T06:12:31;7.30;72.40
14873;DHT22;7528;48.576;19.122;2022-11-15T06:17:55;7.30;72.50
14873;DHT22;7528;48.576;19.122;2022-11-15T06:23:19;7.40;71.90
14873;DHT22;7528;48.576;19.122;2022-11-15T06:28:40;7.50;71.90
14873;DHT22;7528;48.576;19.122;2022-11-15T06:34:01;7.60;71.70
14873;DHT22;7528;48.576;19.122;2022-11-15T06:39:24;7.50;71.60
14873;DHT22;7528;48.576;19.122;2022-11-15T06:44:45;7.60;71.90
14873;DHT22;7528;48.576;19.122;2022-11-15T06:50:07;7.70;71.70
14873;DHT22;7528;48.576;19.122;2022-11-15T06:55:30;7.70;72.20
14873;DHT22;7528;48.576;19.122;2022-11-15T07:00:51;7.70;71.90
14873;DHT22;7528;48.576;19.122;2022-11-15T07:06:13;7.80;71.10
14873;DHT22;7528;48.576;19.122;2022-11-15T07:11:35;7.90;71.10
14873;DHT22;7528;48.576;19.122;2022-11-15T07:16:56;7.90;71.40
14873;DHT22;7528;48.576;19.122;2022-11-15T07:22:17;7.90;72.20
14873;DHT22;7528;48.576;19.122;2022-11-15T07:27:39;7.90;72.20
14873;DHT22;7528;48.576;19.122;2022-11-15T07:33:01;8.00;72.30
14873;DHT22;7528;48.576;19.122;2022-11-15T07:38:22;8.20;72.20
14873;DHT22;7528;48.576;19.122;2022-11-15T07:43:45;8.30;72.00
14873;DHT22;7528;48.576;19.122;2022-11-15T07:49:06;8.30;71.90
14873;DHT22;7528;48.576;19.122;2022-11-15T07:54:27;8.40;73.10
14873;DHT22;7528;48.576;19.122;2022-11-15T07:59:50;8.50;72.50
14873;DHT22;7528;48.576;19.122;2022-11-15T08:05:12;8.60;71.40
14873;DHT22;7528;48.576;19.122;2022-11-15T08:10:34;8.70;71.10
14873;DHT22;7528;48.576;19.122;2022-11-15T08:15:59;8.70;71.80
14873;DHT22;7528;48.576;19.122;2022-11-15T08:21:21;8.90;71.80
14873;DHT22;7528;48.576;19.122;2022-11-15T08:26:42;9.10;71.00
14873;DHT22;7528;48.576;19.122;2022-11-15T08:32:05;9.60;70.90
14873;DHT22;7528;48.576;19.122;2022-11-15T08:37:26;10.00;66.60
14873;DHT22;7528;48.576;19.122;2022-11-15T08:42:48;10.30;65.60
14873;DHT22;7528;48.576;19.122;2022-11-15T08:48:11;10.90;64.40
14873;DHT22;7528;48.576;19.122;2022-11-15T08:53:32;11.30;63.30
14873;DHT22;7528;48.576;19.122;2022-11-15T08:58:53;11.30;62.20
14873;DHT22;7528;48.576;19.122;2022-11-15T09:04:18;11.70;61.20
14873;DHT22;7528;48.576;19.122;2022-11-15T09:09:40;12.10;59.70
14873;DHT22;7528;48.576;19.122;2022-11-15T09:15:01;12.10;59.00
14873;DHT22;7528;48.576;19.122;2022-11-15T09:20:24;12.30;59.10
14873;DHT22;7528;48.576;19.122;2022-11-15T09:25:45;12.60;58.10
14873;DHT22;7528;48.576;19.122;2022-11-15T09:31:07;12.40;59.20
14873;DHT22;7528;48.576;19.122;2022-11-15T09:36:30;12.00;59.50
14873;DHT22;7528;48.576;19.122;2022-11-15T09:42:01;12.10;60.00
14873;DHT22;7528;48.576;19.122;2022-11-15T09:47:43;12.20;59.70
14873;DHT22;7528;48.576;19.122;2022-11-15T09:53:13;12.70;60.20
14873;DHT22;7528;48.576;19.122;2022-11-15T09:58:21;13.50;58.10
14873;DHT22;7528;48.576;19.122;2022-11-15T10:03:33;13.60;56.80
14873;DHT22;7528;48.576;19.122;2022-11-15T10:08:51;13.50;57.80
14873;DHT22;7528;48.576;19.122;2022-11-15T10:14:01;13.40;57.90
14873;DHT22;7528;48.576;19.122;2022-11-15T10:19:08;13.30;58.30
14873;DHT22;7528;48.576;19.122;2022-11-15T10:24:20;13.10;58.70
14873;DHT22;7528;48.576;19.122;2022-11-15T10:29:24;13.00;59.30
14873;DHT22;7528;48.576;19.122;2022-11-15T10:34:27;12.90;59.60
14873;DHT22;7528;48.576;19.122;2022-11-15T10:39:31;12.80;59.80
14873;DHT22;7528;48.576;19.122;2022-11-15T10:44:43;12.70;60.30
14873;DHT22;7528;48.576;19.122;2022-11-15T10:49:54;12.80;60.80
14873;DHT22;7528;48.576;19.122;2022-11-15T10:55:04;12.70;60.90
14873;DHT22;7528;48.576;19.122;2022-11-15T11:00:27;12.60;61.30
14873;DHT22;7528;48.576;19.122;2022-11-15T11:05:33;12.70;61.40
14873;DHT22;7528;48.576;19.122;2022-11-15T11:10:38;12.70;61.70
14873;DHT22;7528;48.576;19.122;2022-11-15T11:15:43;12.50;62.20
14873;DHT22;7528;48.576;19.122;2022-11-15T11:20:50;12.50;62.20
14873;DHT22;7528;48.576;19.122;2022-11-15T11:26:18;12.50;62.40
14873;DHT22;7528;48.576;19.122;2022-11-15T11:31:32;12.70;62.20
14873;DHT22;7528;48.576;19.122;2022-11-15T11:36:40;12.50;62.50
14873;DHT22;7528;48.576;19.122;2022-11-15T11:41:55;12.50;63.60
14873;DHT22;7528;48.576;19.122;2022-11-15T11:47:00;12.50;64.30
14873;DHT22;7528;48.576;19.122;2022-11-15T11:52:11;12.40;64.30
14873;DHT22;7528;48.576;19.122;2022-11-15T11:57:25;12.40;65.10
14873;DHT22;7528;48.576;19.122;2022-11-15T12:02:33;12.30;65.50
14873;DHT22;7528;48.576;19.122;2022-11-15T12:07:39;12.30;67.00
14873;DHT22;7528;48.576;19.122;2022-11-15T12:12:51;12.40;67.50
14873;DHT22;7528;48.576;19.122;2022-11-15T12:17:57;12.30;67.90
14873;DHT22;7528;48.576;19.122;2022-11-15T12:23:04;12.20;68.90
14873;DHT22;7528;48.576;19.122;2022-11-15T12:28:14;12.30;68.90
14873;DHT22;7528;48.576;19.122;2022-11-15T12:33:34;12.40;68.30
14873;DHT22;7528;48.576;19.122;2022-11-15T12:38:56;12.50;67.70
14873;DHT22;7528;48.576;19.122;2022-11-15T12:44:01;12.50;67.80
14873;DHT22;7528;48.576;19.122;2022-11-15T12:49:10;12.50;68.20
14873;DHT22;7528;48.576;19.122;2022-11-15T12:59:56;12.40;68.90
14873;DHT22;7528;48.576;19.122;2022-11-15T13:10:57;12.50;69.40
14873;DHT22;7528;48.576;19.122;2022-11-15T13:16:01;12.50;68.30
14873;DHT22;7528;48.576;19.122;2022-11-15T13:21:18;12.40;69.10
14873;DHT22;7528;48.576;19.122;2022-11-15T13:26:39;12.40;70.00
14873;DHT22;7528;48.576;19.122;2022-11-15T13:31:44;12.30;69.50
14873;DHT22;7528;48.576;19.122;2022-11-15T13:36:47;12.30;70.40
14873;DHT22;7528;48.576;19.122;2022-11-15T13:41:51;12.30;69.70
14873;DHT22;7528;48.576;19.122;2022-11-15T13:47:04;12.30;70.20
14873;DHT22;7528;48.576;19.122;2022-11-15T13:52:09;12.40;70.40
14873;DHT22;7528;48.576;19.122;2022-11-15T13:57:16;12.40;69.90
14873;DHT22;7528;48.576;19.122;2022-11-15T14:02:26;12.50;70.20
14873;DHT22;7528;48.576;19.122;2022-11-15T14:07:30;12.50;70.90
14873;DHT22;7528;48.576;19.122;2022-11-15T14:12:37;12.50;70.80
14873;DHT22;7528;48.576;19.122;2022-11-15T14:17:42;12.40;71.40
14873;DHT22;7528;48.576;19.122;2022-11-15T14:22:52;12.20;71.70
14873;DHT22;7528;48.576;19.122;2022-11-15T14:28:16;12.30;72.20
14873;DHT22;7528;48.576;19.122;2022-11-15T14:33:33;12.30;71.80
14873;DHT22;7528;48.576;19.122;2022-11-15T14:38:36;12.30;72.10
14873;DHT22;7528;48.576;19.122;2022-11-15T14:43:39;12.30;73.10
14873;DHT22;7528;48.576;19.122;2022-11-15T14:48:44;12.30;72.50
14873;DHT22;7528;48.576;19.122;2022-11-15T14:53:48;12.30;72.50
14873;DHT22;7528;48.576;19.122;2022-11-15T14:58:51;12.30;72.50
14873;DHT22;7528;48.576;19.122;2022-11-15T15:03:55;12.30;72.90
14873;DHT22;7528;48.576;19.122;2022-11-15T15:08:59;12.30;73.10
14873;DHT22;7528;48.576;19.122;2022-11-15T15:14:02;12.20;73.20
14873;DHT22;7528;48.576;19.122;2022-11-15T15:19:06;12.30;73.10
14873;DHT22;7528;48.576;19.122;2022-11-15T15:24:13;12.20;72.70
14873;DHT22;7528;48.576;19.122;2022-11-15T15:29:16;12.30;72.60
14873;DHT22;7528;48.576;19.122;2022-11-15T15:34:20;12.30;73.00
14873;DHT22;7528;48.576;19.122;2022-11-15T15:39:23;12.40;72.50
14873;DHT22;7528;48.576;19.122;2022-11-15T15:44:25;12.40;73.10
14873;DHT22;7528;48.576;19.122;2022-11-15T15:49:29;12.40;72.40
14873;DHT22;7528;48.576;19.122;2022-11-15T15:54:32;12.40;72.20
14873;DHT22;7528;48.576;19.122;2022-11-15T15:59:34;12.40;72.00
14873;DHT22;7528;48.576;19.122;2022-11-15T16:04:38;12.40;72.60
14873;DHT22;7528;48.576;19.122;2022-11-15T16:09:41;12.30;72.70
14873;DHT22;7528;48.576;19.122;2022-11-15T16:15:03;12.30;73.20
14873;DHT22;7528;48.576;19.122;2022-11-15T16:20:22;12.20;73.20
14873;DHT22;7528;48.576;19.122;2022-11-15T16:25:25;12.20;73.30
14873;DHT22;7528;48.576;19.122;2022-11-15T16:30:28;12.20;73.50
14873;DHT22;7528;48.576;19.122;2022-11-15T16:35:32;12.20;73.20
14873;DHT22;7528;48.576;19.122;2022-11-15T16:40:35;12.20;73.70
14873;DHT22;7528;48.576;19.122;2022-11-15T16:45:37;12.30;73.60
14873;DHT22;7528;48.576;19.122;2022-11-15T16:50:41;12.30;73.30
14873;DHT22;7528;48.576;19.122;2022-11-15T16:55:44;12.30;73.50
14873;DHT22;7528;48.576;19.122;2022-11-15T17:00:50;12.20;73.60
14873;DHT22;7528;48.576;19.122;2022-11-15T17:05:57;12.20;74.20
14873;DHT22;7528;48.576;19.122;2022-11-15T17:11:04;12.20;74.20
14873;DHT22;7528;48.576;19.122;2022-11-15T17:16:09;12.20;74.00
14873;DHT22;7528;48.576;19.122;2022-11-15T17:21:17;12.10;74.40
14873;DHT22;7528;48.576;19.122;2022-11-15T17:26:20;12.20;74.30
14873;DHT22;7528;48.576;19.122;2022-11-15T17:31:22;12.30;73.90
14873;DHT22;7528;48.576;19.122;2022-11-15T17:36:26;12.20;74.30
14873;DHT22;7528;48.576;19.122;2022-11-15T17:41:29;12.10;75.00
14873;DHT22;7528;48.576;19.122;2022-11-15T17:46:32;12.10;74.80
14873;DHT22;7528;48.576;19.122;2022-11-15T17:51:37;12.10;75.10
14873;DHT22;7528;48.576;19.122;2022-11-15T17:56:40;12.10;74.80
14873;DHT22;7528;48.576;19.122;2022-11-15T18:01:42;12.00;75.00
14873;DHT22;7528;48.576;19.122;2022-11-15T18:06:46;12.10;74.90
14873;DHT22;7528;48.576;19.122;2022-11-15T18:11:49;12.10;74.80
14873;DHT22;7528;48.576;19.122;2022-11-15T18:16:53;12.10;74.60
14873;DHT22;7528;48.576;19.122;2022-11-15T18:21:57;12.20;74.70
14873;DHT22;7528;48.576;19.122;2022-11-15T18:27:03;12.10;74.80
14873;DHT22;7528;48.576;19.122;2022-11-15T18:32:06;12.10;75.10
14873;DHT22;7528;48.576;19.122;2022-11-15T18:37:14;12.00;75.60
14873;DHT22;7528;48.576;19.122;2022-11-15T18:42:16;12.00;75.70
14873;DHT22;7528;48.576;19.122;2022-11-15T18:47:19;12.10;76.00
14873;DHT22;7528;48.576;19.122;2022-11-15T18:52:23;12.10;75.10
14873;DHT22;7528;48.576;19.122;2022-11-15T18:57:25;12.10;75.30
14873;DHT22;7528;48.576;19.122;2022-11-15T19:02:28;12.20;75.00
14873;DHT22;7528;48.576;19.122;2022-11-15T19:07:32;12.10;75.20
14873;DHT22;7528;48.576;19.122;2022-11-15T19:12:37;12.00;75.90
14873;DHT22;7528;48.576;19.122;2022-11-15T19:17:39;12.20;75.40
14873;DHT22;7528;48.576;19.122;2022-11-15T19:22:43;12.30;75.10
14873;DHT22;7528;48.576;19.122;2022-11-15T19:27:45;12.20;75.50
14873;DHT22;7528;48.576;19.122;2022-11-15T19:32:49;12.10;75.70
14873;DHT22;7528;48.576;19.122;2022-11-15T19:37:53;12.20;75.80
14873;DHT22;7528;48.576;19.122;2022-11-15T19:42:56;12.20;75.40
14873;DHT22;7528;48.576;19.122;2022-11-15T19:47:58;12.10;75.50
14873;DHT22;7528;48.576;19.122;2022-11-15T19:53:02;12.20;75.60
14873;DHT22;7528;48.576;19.122;2022-11-15T19:58:05;12.10;75.50
14873;DHT22;7528;48.576;19.122;2022-11-15T20:03:07;12.10;75.80
14873;DHT22;7528;48.576;19.122;2022-11-15T20:08:11;12.20;75.40
14873;DHT22;7528;48.576;19.122;2022-11-15T20:13:15;12.10;74.90
14873;DHT22;7528;48.576;19.122;2022-11-15T20:18:17;12.10;75.70
14873;DHT22;7528;48.576;19.122;2022-11-15T20:23:22;12.10;75.90
14873;DHT22;7528;48.576;19.122;2022-11-15T20:28:25;12.00;75.50
14873;DHT22;7528;48.576;19.122;2022-11-15T20:33:28;12.00;75.50
14873;DHT22;7528;48.576;19.122;2022-11-15T20:38:32;12.00;76.20
14873;DHT22;7528;48.576;19.122;2022-11-15T20:43:35;12.10;76.00
14873;DHT22;7528;48.576;19.122;2022-11-15T20:48:38;12.10;75.90
14873;DHT22;7528;48.576;19.122;2022-11-15T20:53:43;12.10;75.70
14873;DHT22;7528;48.576;19.122;2022-11-15T20:58:46;12.10;75.80
14873;DHT22;7528;48.576;19.122;2022-11-15T21:03:51;12.10;75.90
14873;DHT22;7528;48.576;19.122;2022-11-15T21:08:55;12.00;76.30
14873;DHT22;7528;48.576;19.122;2022-11-15T21:14:15;12.00;76.30
14873;DHT22;7528;48.576;19.122;2022-11-15T21:19:18;12.00;76.70
14873;DHT22;7528;48.576;19.122;2022-11-15T21:24:23;11.90;76.90
14873;DHT22;7528;48.576;19.122;2022-11-15T21:29:26;11.80;77.60
14873;DHT22;7528;48.576;19.122;2022-11-15T21:34:28;11.90;77.30
14873;DHT22;7528;48.576;19.122;2022-11-15T21:39:32;12.00;76.90
14873;DHT22;7528;48.576;19.122;2022-11-15T21:44:34;12.10;76.40
14873;DHT22;7528;48.576;19.122;2022-11-15T21:49:37;12.10;76.00
14873;DHT22;7528;48.576;19.122;2022-11-15T21:54:41;12.20;75.80
14873;DHT22;7528;48.576;19.122;2022-11-15T21:59:44;12.10;75.90
14873;DHT22;7528;48.576;19.122;2022-11-15T22:05:06;12.20;75.80
14873;DHT22;7528;48.576;19.122;2022-11-15T22:10:10;12.10;76.30
14873;DHT22;7528;48.576;19.122;2022-11-15T22:15:13;12.10;76.40
14873;DHT22;7528;48.576;19.122;2022-11-15T22:20:16;12.10;76.50
14873;DHT22;7528;48.576;19.122;2022-11-15T22:25:20;12.00;76.90
14873;DHT22;7528;48.576;19.122;2022-11-15T22:30:23;12.00;77.20
14873;DHT22;7528;48.576;19.122;2022-11-15T22:35:25;12.00;77.20
14873;DHT22;7528;48.576;19.122;2022-11-15T22:40:29;12.00;77.30
14873;DHT22;7528;48.576;19.122;2022-11-15T22:45:32;12.00;77.40
14873;DHT22;7528;48.576;19.122;2022-11-15T22:50:36;12.10;77.10
14873;DHT22;7528;48.576;19.122;2022-11-15T22:55:40;12.00;77.30
14873;DHT22;7528;48.576;19.122;2022-11-15T23:00:44;12.00;77.10
14873;DHT22;7528;48.576;19.122;2022-11-15T23:05:49;12.00;77.50
14873;DHT22;7528;48.576;19.122;2022-11-15T23:10:53;12.00;77.10
14873;DHT22;7528;48.576;19.122;2022-11-15T23:16:13;11.90;77.60
14873;DHT22;7528;48.576;19.122;2022-11-15T23:21:27;12.00;77.70
14873;DHT22;7528;48.576;19.122;2022-11-15T23:26:50;12.10;77.20
14873;DHT22;7528;48.576;19.122;2022-11-15T23:31:54;12.10;76.80
14873;DHT22;7528;48.576;19.122;2022-11-15T23:37:14;12.00;77.90
14873;DHT22;7528;48.576;19.122;2022-11-15T23:42:18;12.00;77.10
14873;DHT22;7528;48.576;19.122;2022-11-15T23:47:21;12.00;77.70
14873;DHT22;7528;48.576;19.122;2022-11-15T23:52:24;12.00;77.50
14873;DHT22;7528;48.576;19.122;2022-11-15T23:57:29;12.10;77.20
